Time;durP1;ratioP1;P1;durP2;ratioP2;P2;SDS_P1;SDS_P2;PMS_P1;PMS_P2;Temp;Humidity;BMP_temperature;BMP_pressure;BME280_temperature;BME280_humidity;BME280_pressure;Samples;Min_cycle;Max_cycle;Signal;HPM_P1;HPM_P2
2023/03/06 00:02:12;;;;;;;;;;;;;;;7.41;100.00;98281.84;4994105;28;19917;-39
2023/03/06 00:04:38;;;;;;;;;;;;;;;7.26;100.00;98275.47;4988239;28;19925;-39
2023/03/06 00:07:03;;;;;;;;;;;;;;;7.45;100.00;98280.03;4989839;28;20036;-39
2023/03/06 00:09:28;;;;;;;;;;;;;;;7.18;100.00;98277.41;4989076;28;19932;-40
2023/03/06 00:11:53;;;;;;;;;;;;;;;7.10;100.00;98275.09;4987739;28;19922;-39
2023/03/06 00:14:19;;;;;;;;;;;;;;;7.56;100.00;98272.84;4989052;28;19968;-39
2023/03/06 00:16:44;;;;;;;;;;;;;;;7.31;100.00;98263.34;4990120;28;19927;-39
2023/03/06 00:19:09;;;;;;;;;;;;;;;7.01;100.00;98265.13;4989860;28;19921;-39
2023/03/06 00:21:34;;;;;;;;;;;;;;;7.24;100.00;98266.16;4987788;28;19932;-39
2023/03/06 00:23:59;;;;;;;;;;;;;;;7.46;100.00;98272.31;4986945;28;19936;-39
2023/03/06 00:26:25;;;;;;;;;;;;;;;7.52;100.00;98266.97;5003451;28;19917;-39
2023/03/06 00:28:50;;;;;;;;;;;;;;;7.23;100.00;98269.59;4989415;28;19918;-39
2023/03/06 00:31:15;;;;;;;;;;;;;;;7.17;100.00;98265.50;4986198;28;19967;-39
2023/03/06 00:33:42;;;;;;;;;;;;;;;7.21;100.00;98266.25;4989121;28;20015;-39
2023/03/06 00:36:07;;;;;;;;;;;;;;;6.85;100.00;98263.88;4991656;28;20450;-39
2023/03/06 00:38:34;;;;;;;;;;;;;;;7.47;100.00;98262.88;4999886;28;19921;-39
2023/03/06 00:41:05;;;;;;;;;;;;;;;7.54;100.00;98249.81;4991837;28;19936;-39
2023/03/06 00:43:30;;;;;;;;;;;;;;;7.30;100.00;98245.50;4989600;28;19948;-39
2023/03/06 00:45:55;;;;;;;;;;;;;;;7.66;100.00;98242.63;4992376;28;20777;-39
2023/03/06 00:48:20;;;;;;;;;;;;;;;7.52;100.00;98230.25;4977171;28;19957;-39
2023/03/06 00:50:45;;;;;;;;;;;;;;;7.38;100.00;98237.56;4989158;28;20008;-39
2023/03/06 00:53:12;;;;;;;;;;;;;;;6.56;100.00;98229.72;4991189;28;20375;-39
2023/03/06 00:55:37;;;;;;;;;;;;;;;6.27;100.00;98246.72;4993118;28;19956;-39
2023/03/06 00:58:02;;;;;;;;;;;;;;;6.17;100.00;98255.50;4992519;28;20446;-39
2023/03/06 01:00:27;;;;;;;;;;;;;;;5.58;100.00;98257.81;4991557;28;20623;-39
2023/03/06 01:02:53;;;;;;;;;;;;;;;5.54;100.00;98268.97;4994627;28;20967;-39
2023/03/06 01:05:18;;;;;;;;;;;;;;;5.67;100.00;98285.69;4990500;28;21126;-39
2023/03/06 01:07:43;;;;;;;;;;;;;;;6.43;100.00;98307.66;4990064;28;19928;-39
2023/03/06 01:10:09;;;;;;;;;;;;;;;5.64;100.00;98303.66;4992127;28;20000;-39
2023/03/06 01:12:34;;;;;;;;;;;;;;;5.91;100.00;98319.19;4993073;28;19966;-39
2023/03/06 01:14:59;;;;;;;;;;;;;;;5.70;100.00;98321.38;4991968;28;19926;-39
2023/03/06 01:17:25;;;;;;;;;;;;;;;5.43;100.00;98325.41;4992651;28;20619;-39
2023/03/06 01:19:50;;;;;;;;;;;;;;;5.60;100.00;98333.53;4990464;28;21653;-39
2023/03/06 01:22:15;;;;;;;;;;;;;;;6.05;100.00;98355.53;4993196;28;19917;-39
2023/03/06 01:24:40;;;;;;;;;;;;;;;6.00;100.00;98347.97;4991205;28;19929;-39
2023/03/06 01:27:05;;;;;;;;;;;;;;;5.93;100.00;98342.97;4991073;28;20011;-39
2023/03/06 01:29:31;;;;;;;;;;;;;;;5.74;100.00;98337.47;4991888;28;19975;-39
2023/03/06 01:31:56;;;;;;;;;;;;;;;5.44;100.00;98338.13;4990423;28;19917;-39
2023/03/06 01:34:21;;;;;;;;;;;;;;;6.44;100.00;98355.41;4993266;28;19968;-39
2023/03/06 01:36:46;;;;;;;;;;;;;;;5.93;100.00;98345.53;4992086;28;19917;-39
2023/03/06 01:39:12;;;;;;;;;;;;;;;5.42;100.00;98342.41;4991876;28;20020;-39
2023/03/06 01:41:37;;;;;;;;;;;;;;;5.56;100.00;98359.16;4977855;28;19928;-40
2023/03/06 01:44:02;;;;;;;;;;;;;;;5.05;100.00;98355.13;4989224;28;19921;-39
2023/03/06 01:46:27;;;;;;;;;;;;;;;5.48;100.00;98378.94;4991432;28;19921;-39
2023/03/06 01:49:07;;;;;;;;;;;;;;;5.46;100.00;98378.97;4990412;28;19924;-39
2023/03/06 01:51:34;;;;;;;;;;;;;;;5.68;100.00;98394.66;4989525;28;19918;-39
2023/03/06 01:54:01;;;;;;;;;;;;;;;5.42;100.00;98385.84;4990615;28;20399;-40
2023/03/06 01:56:26;;;;;;;;;;;;;;;5.43;100.00;98389.25;4990450;28;19921;-39
2023/03/06 01:58:51;;;;;;;;;;;;;;;5.83;100.00;98399.41;4991260;28;19972;-39
2023/03/06 02:01:16;;;;;;;;;;;;;;;5.63;100.00;98399.00;4992657;28;19928;-39
2023/03/06 02:03:42;;;;;;;;;;;;;;;6.16;100.00;98402.13;4989435;28;19929;-39
2023/03/06 02:06:07;;;;;;;;;;;;;;;5.31;100.00;98379.28;4990479;28;19925;-39
2023/03/06 02:08:32;;;;;;;;;;;;;;;5.56;100.00;98395.75;4991381;28;19928;-39
2023/03/06 02:11:04;;;;;;;;;;;;;;;6.53;100.00;98416.56;4976319;28;20015;-40
2023/03/06 02:13:30;;;;;;;;;;;;;;;6.46;100.00;98386.91;4982234;28;19925;-39
2023/03/06 02:15:55;;;;;;;;;;;;;;;5.90;100.00;98356.69;4990426;28;19967;-39
2023/03/06 02:18:21;;;;;;;;;;;;;;;5.83;100.00;98350.03;4990660;28;20000;-39
2023/03/06 02:20:47;;;;;;;;;;;;;;;7.33;100.00;98373.44;4989235;28;21647;-39
2023/03/06 02:23:15;;;;;;;;;;;;;;;6.88;100.00;98331.16;4991663;28;19922;-39
2023/03/06 02:25:42;;;;;;;;;;;;;;;6.35;100.00;98294.25;4990505;28;19921;-39
2023/03/06 02:28:08;;;;;;;;;;;;;;;6.39;100.00;98306.94;4990610;28;19929;-39
2023/03/06 02:30:34;;;;;;;;;;;;;;;5.93;100.00;98291.88;4987430;28;19925;-39
2023/03/06 02:32:59;;;;;;;;;;;;;;;5.63;100.00;98304.50;4987500;28;20860;-39
2023/03/06 02:35:25;;;;;;;;;;;;;;;6.72;100.00;98327.38;4988269;28;19922;-39
2023/03/06 02:37:51;;;;;;;;;;;;;;;6.06;100.00;98300.94;4988540;28;19913;-39
2023/03/06 02:40:16;;;;;;;;;;;;;;;5.91;100.00;98298.72;4989270;28;19985;-39
2023/03/06 02:42:46;;;;;;;;;;;;;;;6.40;100.00;98312.88;4972467;28;19925;-39
2023/03/06 02:45:11;;;;;;;;;;;;;;;6.36;100.00;98301.88;4988559;28;19927;-39
2023/03/06 02:47:37;;;;;;;;;;;;;;;6.86;100.00;98307.34;4987648;28;19936;-39
2023/03/06 02:50:02;;;;;;;;;;;;;;;6.25;100.00;98274.06;4987773;28;19921;-39
2023/03/06 02:52:27;;;;;;;;;;;;;;;5.23;100.00;98265.41;4988446;28;20537;-39
2023/03/06 02:54:52;;;;;;;;;;;;;;;6.37;100.00;98292.50;4989961;28;19927;-39
2023/03/06 02:57:17;;;;;;;;;;;;;;;6.57;100.00;98309.84;4988495;28;19925;-39
2023/03/06 02:59:43;;;;;;;;;;;;;;;5.85;100.00;98285.25;4987512;28;19921;-39
2023/03/06 03:02:08;;;;;;;;;;;;;;;6.38;100.00;98299.28;4988104;28;20020;-39
2023/03/06 03:04:33;;;;;;;;;;;;;;;6.85;100.00;98299.72;4987309;28;19925;-40
2023/03/06 03:06:59;;;;;;;;;;;;;;;5.97;100.00;98260.28;4985921;28;19931;-40
2023/03/06 03:09:24;;;;;;;;;;;;;;;6.41;100.00;98286.41;4987972;28;20437;-39
2023/03/06 03:11:49;;;;;;;;;;;;;;;6.94;100.00;98284.09;4986811;28;19926;-39
2023/03/06 03:14:15;;;;;;;;;;;;;;;6.31;100.00;98267.09;4987515;28;20431;-39
2023/03/06 03:16:40;;;;;;;;;;;;;;;6.07;100.00;98251.53;4988390;28;20032;-40
2023/03/06 03:19:06;;;;;;;;;;;;;;;5.28;100.00;98256.81;4987823;28;19916;-39
2023/03/06 03:21:31;;;;;;;;;;;;;;;6.22;100.00;98299.69;4986142;28;21624;-39
2023/03/06 03:23:56;;;;;;;;;;;;;;;5.75;100.00;98294.03;4987967;28;19977;-39
2023/03/06 03:26:21;;;;;;;;;;;;;;;5.57;100.00;98292.72;4988594;28;20083;-39
2023/03/06 03:28:46;;;;;;;;;;;;;;;5.43;100.00;98287.94;4988261;28;19926;-40
2023/03/06 03:31:12;;;;;;;;;;;;;;;5.29;100.00;98289.97;4985571;28;20147;-40
2023/03/06 03:33:37;;;;;;;;;;;;;;;5.56;100.00;98311.47;4990661;28;20012;-39
2023/03/06 03:36:03;;;;;;;;;;;;;;;5.17;100.00;98314.03;4996189;28;20371;-39
2023/03/06 03:38:29;;;;;;;;;;;;;;;5.48;100.00;98332.97;4987326;28;20005;-39
2023/03/06 03:40:54;;;;;;;;;;;;;;;5.76;100.00;98354.44;4987035;28;20659;-40
2023/03/06 03:43:19;;;;;;;;;;;;;;;5.68;100.00;98350.38;4986308;28;21864;-40
2023/03/06 03:45:44;;;;;;;;;;;;;;;6.46;100.00;98354.47;4988383;28;19956;-40
2023/03/06 03:48:09;;;;;;;;;;;;;;;5.11;100.00;98326.06;4987771;28;20019;-39
2023/03/06 03:50:35;;;;;;;;;;;;;;;5.63;100.00;98350.47;4986619;28;21324;-39
2023/03/06 03:53:00;;;;;;;;;;;;;;;5.89;100.00;98366.97;4986115;28;20024;-40
2023/03/06 03:55:25;;;;;;;;;;;;;;;6.17;100.00;98362.88;4987656;28;19918;-39
2023/03/06 03:57:50;;;;;;;;;;;;;;;6.14;100.00;98347.63;4987949;28;20008;-39
2023/03/06 04:00:16;;;;;;;;;;;;;;;6.47;100.00;98347.63;4987594;28;20258;-39
2023/03/06 04:02:42;;;;;;;;;;;;;;;6.46;100.00;98322.97;4987890;28;20079;-39
2023/03/06 04:05:07;;;;;;;;;;;;;;;5.59;100.00;98292.72;4986873;28;19921;-40
2023/03/06 04:07:32;;;;;;;;;;;;;;;5.78;100.00;98303.31;4986811;28;21206;-39
2023/03/06 04:09:58;;;;;;;;;;;;;;;6.12;100.00;98303.38;4986160;28;19913;-39
2023/03/06 04:12:23;;;;;;;;;;;;;;;6.73;100.00;98305.16;4991339;28;20030;-39
2023/03/06 04:14:48;;;;;;;;;;;;;;;6.16;100.00;98283.66;4990360;28;20019;-39
2023/03/06 04:17:13;;;;;;;;;;;;;;;5.09;100.00;98261.50;4990561;28;20133;-40
2023/03/06 04:19:38;;;;;;;;;;;;;;;5.38;100.00;98284.66;4990795;28;19960;-40
2023/03/06 04:22:04;;;;;;;;;;;;;;;5.45;100.00;98296.41;4988834;28;20574;-39
2023/03/06 04:24:29;;;;;;;;;;;;;;;4.89;100.00;98295.91;4991369;28;20441;-39
2023/03/06 04:26:54;;;;;;;;;;;;;;;6.05;100.00;98328.25;4990794;28;19921;-39
2023/03/06 04:29:19;;;;;;;;;;;;;;;5.54;100.00;98307.28;4990036;28;19918;-40
2023/03/06 04:31:45;;;;;;;;;;;;;;;5.70;100.00;98315.44;4988917;28;19929;-39
2023/03/06 04:34:10;;;;;;;;;;;;;;;4.85;100.00;98299.38;4991817;28;20075;-39
2023/03/06 04:36:35;;;;;;;;;;;;;;;4.73;100.00;98314.94;4989678;28;19917;-40
2023/03/06 04:39:00;;;;;;;;;;;;;;;5.06;100.00;98335.53;4991233;28;20198;-39
2023/03/06 04:41:26;;;;;;;;;;;;;;;4.64;100.00;98331.25;4990300;28;20440;-39
2023/03/06 04:43:51;;;;;;;;;;;;;;;4.97;100.00;98355.28;4988434;28;20450;-39
2023/03/06 04:46:16;;;;;;;;;;;;;;;5.22;100.00;98370.94;5007209;28;19922;-39
2023/03/06 04:48:41;;;;;;;;;;;;;;;4.81;100.00;98351.34;4990140;28;19971;-40
2023/03/06 04:51:07;;;;;;;;;;;;;;;4.59;100.00;98354.31;4989242;28;19971;-40
2023/03/06 04:53:32;;;;;;;;;;;;;;;5.13;100.00;98385.59;4989942;28;19932;-39
2023/03/06 04:55:57;;;;;;;;;;;;;;;5.62;100.00;98416.06;4989921;28;20459;-40
2023/03/06 04:58:23;;;;;;;;;;;;;;;5.46;100.00;98389.19;4990584;28;21546;-39
2023/03/06 05:00:48;;;;;;;;;;;;;;;5.10;100.00;98366.06;4989982;28;19928;-39
2023/03/06 05:03:13;;;;;;;;;;;;;;;4.22;100.00;98349.03;4990621;28;19928;-40
2023/03/06 05:05:39;;;;;;;;;;;;;;;4.19;100.00;98364.34;4989518;28;19928;-39
2023/03/06 05:08:04;;;;;;;;;;;;;;;4.46;100.00;98388.53;4991432;28;19921;-39
2023/03/06 05:10:30;;;;;;;;;;;;;;;4.27;100.00;98398.19;4990057;28;19968;-39
2023/03/06 05:12:55;;;;;;;;;;;;;;;4.32;100.00;98410.88;4990353;28;20127;-39
2023/03/06 05:15:20;;;;;;;;;;;;;;;4.37;100.00;98415.00;4990484;28;19931;-40
2023/03/06 05:17:48;;;;;;;;;;;;;;;4.76;100.00;98417.75;4989724;28;19917;-40
2023/03/06 05:20:14;;;;;;;;;;;;;;;4.87;100.00;98417.56;4986638;28;20028;-39
2023/03/06 05:22:39;;;;;;;;;;;;;;;4.98;100.00;98412.25;4990346;28;19921;-39
2023/03/06 05:25:04;;;;;;;;;;;;;;;5.03;100.00;98411.28;4988878;28;19960;-40
2023/03/06 05:27:30;;;;;;;;;;;;;;;4.81;100.00;98394.69;4989909;28;19925;-40
2023/03/06 05:29:55;;;;;;;;;;;;;;;5.56;100.00;98416.19;4989240;28;19976;-39
2023/03/06 05:32:20;;;;;;;;;;;;;;;4.42;100.00;98374.16;4988349;28;19926;-39
2023/03/06 05:34:46;;;;;;;;;;;;;;;4.55;100.00;98387.53;4989720;28;19925;-40
2023/03/06 05:37:11;;;;;;;;;;;;;;;4.72;100.00;98411.03;4989480;28;19925;-40
2023/03/06 05:39:36;;;;;;;;;;;;;;;5.01;100.00;98422.41;4989177;28;20443;-39
2023/03/06 05:42:01;;;;;;;;;;;;;;;4.81;100.00;98410.88;4989045;28;20356;-39
2023/03/06 05:44:31;;;;;;;;;;;;;;;4.66;100.00;98405.22;4987745;28;20391;-39
2023/03/06 05:46:56;;;;;;;;;;;;;;;4.45;100.00;98407.25;4986911;28;20397;-39
2023/03/06 05:49:21;;;;;;;;;;;;;;;4.36;100.00;98417.63;4988804;28;19921;-40
2023/03/06 05:51:46;;;;;;;;;;;;;;;4.69;100.00;98430.66;4988856;28;19917;-40
2023/03/06 05:54:11;;;;;;;;;;;;;;;4.17;100.00;98412.81;4988417;28;19917;-40
2023/03/06 05:56:37;;;;;;;;;;;;;;;3.94;100.00;98414.84;4988752;28;20113;-40
2023/03/06 05:59:02;;;;;;;;;;;;;;;4.51;100.00;98447.94;4987942;28;20302;-40
2023/03/06 06:01:28;;;;;;;;;;;;;;;4.96;100.00;98460.75;4988892;28;20098;-40
2023/03/06 06:03:53;;;;;;;;;;;;;;;5.15;100.00;98466.38;4989306;28;20026;-40
2023/03/06 06:06:19;;;;;;;;;;;;;;;4.58;100.00;98447.00;4988776;28;19968;-40
2023/03/06 06:08:44;;;;;;;;;;;;;;;4.68;100.00;98452.75;4989186;28;20156;-40
2023/03/06 06:11:10;;;;;;;;;;;;;;;4.34;100.00;98444.84;4986034;28;20177;-40
2023/03/06 06:13:35;;;;;;;;;;;;;;;4.14;100.00;98442.59;4988124;28;19925;-40
2023/03/06 06:16:07;;;;;;;;;;;;;;;4.37;100.00;98475.38;4988783;28;19925;-40
2023/03/06 06:18:33;;;;;;;;;;;;;;;4.22;100.00;98465.38;4986093;28;19922;-40
2023/03/06 06:20:58;;;;;;;;;;;;;;;5.03;100.00;98498.06;4987950;28;19917;-40
2023/03/06 06:23:23;;;;;;;;;;;;;;;4.31;100.00;98478.00;4988074;28;19922;-40
2023/03/06 06:25:50;;;;;;;;;;;;;;;4.38;100.00;98477.91;4986876;28;20240;-40
2023/03/06 06:28:15;;;;;;;;;;;;;;;3.94;100.00;98465.78;4988591;28;19922;-40
2023/03/06 06:30:40;;;;;;;;;;;;;;;4.55;100.00;98499.72;4984500;28;19922;-40
2023/03/06 06:33:05;;;;;;;;;;;;;;;4.40;100.00;98499.13;4987729;28;20006;-40
2023/03/06 06:35:33;;;;;;;;;;;;;;;4.43;100.00;98505.88;4987902;28;19913;-40
2023/03/06 06:37:59;;;;;;;;;;;;;;;4.44;100.00;98501.59;4988277;28;21299;-40
2023/03/06 06:40:26;;;;;;;;;;;;;;;4.53;100.00;98486.16;4985033;28;19925;-40
2023/03/06 06:42:51;;;;;;;;;;;;;;;4.51;100.00;98468.31;4985492;28;19924;-40
2023/03/06 06:45:16;;;;;;;;;;;;;;;3.91;100.00;98445.47;4988871;28;19917;-40
2023/03/06 06:47:42;;;;;;;;;;;;;;;4.14;100.00;98453.59;4988443;28;19972;-40
2023/03/06 06:50:10;;;;;;;;;;;;;;;4.18;100.00;98460.34;4983961;28;21034;-40
2023/03/06 06:52:35;;;;;;;;;;;;;;;3.80;100.00;98452.41;4987156;28;19932;-40
2023/03/06 06:55:00;;;;;;;;;;;;;;;4.02;100.00;98466.53;4987972;28;19921;-40
2023/03/06 06:57:26;;;;;;;;;;;;;;;4.18;100.00;98464.63;4992729;28;19932;-40
2023/03/06 06:59:51;;;;;;;;;;;;;;;4.22;100.00;98465.38;4987111;28;19929;-40
2023/03/06 07:02:16;;;;;;;;;;;;;;;4.36;100.00;98483.88;4987609;28;19960;-40
2023/03/06 07:04:42;;;;;;;;;;;;;;;5.36;100.00;98503.44;4984475;28;20671;-40
2023/03/06 07:07:07;;;;;;;;;;;;;;;4.87;100.00;98457.53;4987706;28;19933;-40
2023/03/06 07:09:32;;;;;;;;;;;;;;;4.52;100.00;98413.94;4987312;28;20409;-40
2023/03/06 07:11:57;;;;;;;;;;;;;;;4.16;100.00;98410.28;4986479;28;20374;-40
2023/03/06 07:14:24;;;;;;;;;;;;;;;4.81;100.00;98444.03;4986997;28;20116;-40
2023/03/06 07:16:49;;;;;;;;;;;;;;;5.49;100.00;98447.00;4988864;28;19957;-40
2023/03/06 07:19:14;;;;;;;;;;;;;;;4.94;100.00;98396.16;4994289;28;20379;-40
2023/03/06 07:21:39;;;;;;;;;;;;;;;5.83;100.00;98422.41;4987368;28;20286;-40
2023/03/06 07:24:05;;;;;;;;;;;;;;;6.37;100.00;98387.13;4987287;28;20313;-40
2023/03/06 07:26:30;;;;;;;;;;;;;;;5.10;100.00;98321.84;4988331;28;20402;-39
2023/03/06 07:28:55;;;;;;;;;;;;;;;5.57;100.00;98335.31;4988208;28;19960;-40
2023/03/06 07:31:21;;;;;;;;;;;;;;;5.60;100.00;98317.34;4986563;28;20020;-40
2023/03/06 07:33:47;;;;;;;;;;;;;;;5.29;100.00;98304.44;4987832;28;19921;-40
2023/03/06 07:36:13;;;;;;;;;;;;;;;5.80;100.00;98311.78;4986899;28;20045;-40
2023/03/06 07:38:38;;;;;;;;;;;;;;;6.26;100.00;98319.19;4987368;28;19925;-40
2023/03/06 07:41:04;;;;;;;;;;;;;;;5.90;100.00;98281.75;4985702;28;20402;-40
2023/03/06 07:43:29;;;;;;;;;;;;;;;5.90;100.00;98286.84;4984073;28;20016;-40
2023/03/06 07:45:55;;;;;;;;;;;;;;;5.52;100.00;98279.22;4988686;28;20065;-39
2023/03/06 07:48:20;;;;;;;;;;;;;;;5.12;100.00;98282.66;4990490;28;20131;-40
2023/03/06 07:50:53;;;;;;;;;;;;;;;4.47;100.00;98275.50;4986070;28;19929;-40
2023/03/06 07:53:21;;;;;;;;;;;;;;;4.79;100.00;98289.34;4990382;28;19940;-40
2023/03/06 07:55:46;;;;;;;;;;;;;;;4.86;100.00;98306.19;4990622;28;20400;-40
2023/03/06 07:58:11;;;;;;;;;;;;;;;4.52;100.00;98300.91;4990252;28;19929;-40
2023/03/06 08:00:37;;;;;;;;;;;;;;;5.98;100.00;98361.66;4989011;28;19950;-40
2023/03/06 08:03:02;;;;;;;;;;;;;;;5.54;100.00;98331.13;4990141;28;19933;-40
2023/03/06 08:05:27;;;;;;;;;;;;;;;4.84;100.00;98309.66;4991089;28;19926;-40
2023/03/06 08:07:52;;;;;;;;;;;;;;;5.17;100.00;98323.41;4988688;28;19953;-40
2023/03/06 08:10:18;;;;;;;;;;;;;;;4.53;100.00;98313.59;4991272;28;20035;-40
2023/03/06 08:12:43;;;;;;;;;;;;;;;4.85;100.00;98339.38;4990915;28;20028;-40
2023/03/06 08:15:09;;;;;;;;;;;;;;;4.75;100.00;98341.28;4991701;28;19928;-40
2023/03/06 08:17:35;;;;;;;;;;;;;;;5.32;100.00;98361.38;4990778;28;19925;-40
2023/03/06 08:20:00;;;;;;;;;;;;;;;5.48;100.00;98354.22;4989827;28;19917;-40
2023/03/06 08:22:25;;;;;;;;;;;;;;;5.26;100.00;98342.78;4991131;28;19925;-40
2023/03/06 08:24:53;;;;;;;;;;;;;;;5.26;100.00;98328.31;4990570;28;19921;-40
2023/03/06 08:27:18;;;;;;;;;;;;;;;4.78;100.00;98308.88;4988026;28;20020;-40
2023/03/06 08:29:43;;;;;;;;;;;;;;;5.51;100.00;98340.56;4990888;28;19929;-40
2023/03/06 08:32:09;;;;;;;;;;;;;;;6.05;100.00;98347.84;4989549;28;19957;-40
2023/03/06 08:34:35;;;;;;;;;;;;;;;5.23;100.00;98310.53;4990812;28;19928;-40
2023/03/06 08:37:00;;;;;;;;;;;;;;;5.11;100.00;98303.97;4991552;28;19917;-40
2023/03/06 08:39:25;;;;;;;;;;;;;;;4.62;100.00;98294.75;4991076;28;19948;-40
2023/03/06 08:41:51;;;;;;;;;;;;;;;5.01;100.00;98321.16;4990442;28;19917;-40
2023/03/06 08:44:16;;;;;;;;;;;;;;;4.67;100.00;98304.84;4989482;28;19967;-40
2023/03/06 08:46:41;;;;;;;;;;;;;;;4.78;100.00;98308.03;4990395;28;19921;-40
2023/03/06 08:49:06;;;;;;;;;;;;;;;5.87;100.00;98339.72;4991374;28;19965;-40
2023/03/06 08:51:32;;;;;;;;;;;;;;;4.81;100.00;98302.88;4989927;28;20012;-40
2023/03/06 08:53:57;;;;;;;;;;;;;;;5.32;100.00;98320.53;4990283;28;20052;-40
2023/03/06 08:56:27;;;;;;;;;;;;;;;5.76;100.00;98328.91;4991309;28;20477;-40
2023/03/06 08:58:52;;;;;;;;;;;;;;;5.10;100.00;98304.00;4990807;28;19917;-39
2023/03/06 09:01:21;;;;;;;;;;;;;;;5.31;100.00;98311.19;4988333;28;19921;-40
2023/03/06 09:03:46;;;;;;;;;;;;;;;4.78;100.00;98297.84;4988214;28;19965;-40
2023/03/06 09:06:11;;;;;;;;;;;;;;;5.30;100.00;98318.88;4989317;28;20059;-40
2023/03/06 09:08:37;;;;;;;;;;;;;;;5.27;100.00;98319.81;4989143;28;19988;-40
2023/03/06 09:11:02;;;;;;;;;;;;;;;4.64;100.00;98304.94;4989824;28;20013;-40
2023/03/06 09:13:27;;;;;;;;;;;;;;;4.84;100.00;98318.13;4991520;28;19925;-40
2023/03/06 09:15:53;;;;;;;;;;;;;;;4.98;100.00;98320.41;4990252;28;19923;-40
2023/03/06 09:18:18;;;;;;;;;;;;;;;4.78;100.00;98328.44;4993534;28;19917;-40
2023/03/06 09:20:43;;;;;;;;;;;;;;;5.45;100.00;98344.94;4991991;28;19921;-40
2023/03/06 09:23:08;;;;;;;;;;;;;;;6.40;100.00;98343.56;4990986;28;19996;-40
2023/03/06 09:25:34;;;;;;;;;;;;;;;6.42;100.00;98313.69;4989499;28;19931;-40
2023/03/06 09:27:59;;;;;;;;;;;;;;;5.90;100.00;98277.47;4990180;28;19921;-40
2023/03/06 09:30:24;;;;;;;;;;;;;;;5.76;100.00;98264.19;4990768;28;19921;-40
2023/03/06 09:32:49;;;;;;;;;;;;;;;6.30;100.00;98266.25;4991320;28;19932;-40
2023/03/06 09:35:16;;;;;;;;;;;;;;;4.88;100.00;98238.13;4992206;28;19940;-40
2023/03/06 09:37:41;;;;;;;;;;;;;;;5.39;100.00;98265.06;4991741;28;19918;-40
2023/03/06 09:40:11;;;;;;;;;;;;;;;5.95;100.00;98288.44;4990378;28;19951;-40
2023/03/06 09:42:37;;;;;;;;;;;;;;;5.72;100.00;98275.34;4989590;28;19984;-41
2023/03/06 09:45:02;;;;;;;;;;;;;;;4.63;100.00;98254.78;4986872;28;20016;-40
2023/03/06 09:47:40;;;;;;;;;;;;;;;5.23;100.00;98292.66;4987477;28;20012;-40
2023/03/06 09:50:11;;;;;;;;;;;;;;;4.82;100.00;98289.25;4990420;28;20174;-40
2023/03/06 09:52:44;;;;;;;;;;;;;;;5.92;100.00;98326.81;4991108;28;20409;-40
2023/03/06 09:55:20;;;;;;;;;;;;;;;6.42;100.00;98321.34;4990278;28;19928;-40
2023/03/06 09:57:58;;;;;;;;;;;;;;;5.81;100.00;98298.97;4992044;28;19953;-40
2023/03/06 10:00:25;;;;;;;;;;;;;;;5.05;100.00;98264.97;4990633;28;19925;-40
2023/03/06 10:03:10;;;;;;;;;;;;;;;5.68;100.00;98302.72;4990408;28;19921;-40
2023/03/06 10:05:38;;;;;;;;;;;;;;;6.22;100.00;98314.19;4989809;28;19931;-40
2023/03/06 10:08:18;;;;;;;;;;;;;;;6.22;100.00;98294.56;4990526;28;20610;-40
2023/03/06 10:10:56;;;;;;;;;;;;;;;6.63;100.00;98287.50;5007437;28;20491;-40
2023/03/06 10:13:28;;;;;;;;;;;;;;;6.41;100.00;98253.16;4993961;28;20014;-40
2023/03/06 10:15:54;;;;;;;;;;;;;;;6.30;100.00;98227.06;4990194;28;19932;-40
2023/03/06 10:18:19;;;;;;;;;;;;;;;6.24;100.00;98215.28;4990340;28;19922;-40
2023/03/06 10:20:44;;;;;;;;;;;;;;;5.57;100.00;98215.28;4990864;28;20971;-40
2023/03/06 10:23:14;;;;;;;;;;;;;;;6.46;100.00;98253.91;4990162;28;19965;-40
2023/03/06 10:25:49;;;;;;;;;;;;;;;5.87;100.00;98223.88;4987850;28;20071;-40
2023/03/06 10:28:15;;;;;;;;;;;;;;;5.29;100.00;98221.03;4989036;28;19925;-40
2023/03/06 10:30:40;;;;;;;;;;;;;;;5.08;100.00;98240.22;4989299;28;19933;-40
2023/03/06 10:33:15;;;;;;;;;;;;;;;5.10;100.00;98270.81;4990093;28;19934;-40
2023/03/06 10:35:47;;;;;;;;;;;;;;;5.14;100.00;98278.38;4989733;28;19925;-40
2023/03/06 10:38:18;;;;;;;;;;;;;;;4.45;100.00;98282.34;4990780;28;19936;-40
2023/03/06 10:40:47;;;;;;;;;;;;;;;4.66;100.00;98313.41;4988169;28;20737;-40
2023/03/06 10:43:12;;;;;;;;;;;;;;;4.46;100.00;98319.69;4986475;28;20492;-41
2023/03/06 10:45:48;;;;;;;;;;;;;;;4.86;100.00;98341.91;4987245;28;20137;-40
2023/03/06 10:48:14;;;;;;;;;;;;;;;5.13;100.00;98370.28;4987083;28;19917;-41
2023/03/06 10:50:39;;;;;;;;;;;;;;;4.71;100.00;98377.91;4984643;28;19922;-40
2023/03/06 10:53:06;;;;;;;;;;;;;;;5.01;100.00;98404.53;4985845;28;19933;-40
2023/03/06 10:55:32;;;;;;;;;;;;;;;5.21;100.00;98409.25;4986639;28;19929;-40
2023/03/06 10:58:03;;;;;;;;;;;;;;;5.37;100.00;98431.06;4987591;28;20019;-40
2023/03/06 11:00:30;;;;;;;;;;;;;;;4.59;100.00;98414.66;4986496;28;20055;-40
2023/03/06 11:03:09;;;;;;;;;;;;;;;4.72;100.00;98436.56;4988106;28;19966;-40
2023/03/06 11:05:34;;;;;;;;;;;;;;;4.58;100.00;98452.09;4987322;28;20350;-40
2023/03/06 11:07:59;;;;;;;;;;;;;;;4.50;100.00;98460.72;4987609;28;20020;-40
2023/03/06 11:10:25;;;;;;;;;;;;;;;4.64;100.00;98476.63;4988248;28;19939;-40
2023/03/06 11:13:01;;;;;;;;;;;;;;;5.00;100.00;98498.13;4986477;28;19925;-40
2023/03/06 11:15:27;;;;;;;;;;;;;;;4.23;100.00;98477.28;4986474;28;19927;-40
2023/03/06 11:18:23;;;;;;;;;;;;;;;4.87;100.00;98517.06;4988189;28;19917;-40
2023/03/06 11:20:49;;;;;;;;;;;;;;;4.85;100.00;98518.78;4984132;28;19921;-40
2023/03/06 11:23:14;;;;;;;;;;;;;;;4.90;100.00;98527.19;4986265;28;21731;-40
2023/03/06 11:25:41;;;;;;;;;;;;;;;4.87;100.00;98522.16;4986850;28;20016;-40
2023/03/06 11:28:27;;;;;;;;;;;;;;;4.60;100.00;98519.19;4973334;28;19925;-40
2023/03/06 11:31:03;;;;;;;;;;;;;;;4.75;100.00;98527.47;4964108;28;19927;-40
2023/03/06 11:33:29;;;;;;;;;;;;;;;4.85;100.00;98534.09;4987369;28;20012;-40
2023/03/06 11:35:56;;;;;;;;;;;;;;;5.06;100.00;98544.81;4988289;28;19921;-40
2023/03/06 11:38:27;;;;;;;;;;;;;;;5.08;100.00;98546.47;4989863;28;20577;-40
2023/03/06 11:40:53;;;;;;;;;;;;;;;5.34;100.00;98553.69;4985995;28;20015;-40
2023/03/06 11:43:22;;;;;;;;;;;;;;;4.98;100.00;98553.44;4983738;28;20032;-40
2023/03/06 11:45:53;;;;;;;;;;;;;;;5.37;100.00;98551.06;4990855;28;19952;-40
2023/03/06 11:48:29;;;;;;;;;;;;;;;4.97;100.00;98533.91;4990571;28;20032;-40
2023/03/06 11:50:58;;;;;;;;;;;;;;;5.66;100.00;98552.25;4990173;28;19983;-40
2023/03/06 11:53:31;;;;;;;;;;;;;;;5.25;100.00;98518.09;4990357;28;19941;-40
2023/03/06 11:55:56;;;;;;;;;;;;;;;5.81;100.00;98520.41;4990512;28;19926;-40
2023/03/06 11:58:37;;;;;;;;;;;;;;;5.76;100.00;98507.75;4990106;28;20024;-40
2023/03/06 12:01:08;;;;;;;;;;;;;;;5.93;100.00;98492.06;4991245;28;19917;-40
2023/03/06 12:03:52;;;;;;;;;;;;;;;5.49;100.00;98454.66;4993112;28;20547;-40
2023/03/06 12:06:24;;;;;;;;;;;;;;;4.67;100.00;98417.06;4990475;28;19952;-40
2023/03/06 12:09:08;;;;;;;;;;;;;;;5.54;100.00;98443.50;4989009;28;19935;-40
2023/03/06 12:11:39;;;;;;;;;;;;;;;5.22;100.00;98421.13;4991561;28;19967;-40
2023/03/06 12:14:24;;;;;;;;;;;;;;;5.45;100.00;98424.09;5009000;28;19940;-40
2023/03/06 12:17:05;;;;;;;;;;;;;;;5.08;100.00;98402.72;4989811;28;19924;-40
2023/03/06 12:19:46;;;;;;;;;;;;;;;5.06;100.00;98396.78;4988399;28;20459;-40
2023/03/06 12:22:31;;;;;;;;;;;;;;;5.12;100.00;98389.88;4988917;28;19928;-39
2023/03/06 12:24:56;;;;;;;;;;;;;;;5.86;100.00;98394.25;4988693;28;19914;-40
2023/03/06 12:27:30;;;;;;;;;;;;;;;6.06;100.00;98373.34;4991478;28;19924;-40
2023/03/06 12:30:08;;;;;;;;;;;;;;;4.96;100.00;98317.88;4991068;28;19926;-40
2023/03/06 12:32:43;;;;;;;;;;;;;;;4.85;100.00;98314.69;4991375;28;19933;-39
2023/03/06 12:35:27;;;;;;;;;;;;;;;5.00;100.00;98324.59;4991543;28;19922;-40
2023/03/06 12:37:52;;;;;;;;;;;;;;;5.68;100.00;98340.16;4992652;28;20605;-40
2023/03/06 12:40:32;;;;;;;;;;;;;;;5.45;100.00;98332.16;4993106;28;20041;-39
2023/03/06 12:43:09;;;;;;;;;;;;;;;5.73;100.00;98336.63;4985803;28;20016;-40
2023/03/06 12:45:35;;;;;;;;;;;;;;;5.47;100.00;98319.34;4987690;28;19925;-40
2023/03/06 12:48:01;;;;;;;;;;;;;;;6.07;100.00;98315.44;4991592;28;21766;-40